Portada
METAR-TAF:

METAR-TAF

Aeropuertos :

Aeropuerto Internacional de Dubái

Dubái, Emiratos Árabes Unidos

latitud: 25-15-10N, longitud: 055-21-52E, altitud: 8 m

Observación

El informe se hizo hace 55 minutos, a las 00:00 UTC
Viento 5 kt del oeste, variando entre sur-suroeste y norte
Temperatura 26°C
Humedad 61%
Presión 1014 hPa
Visibilidad 10 km o más
Nubes dispersas a una altura de 3500 ft

METAR: OMDB 190000Z 26005KT 200V360 9999 SCT035 26/18 Q1014 NOSIG

Hora: 04:55 (00:55 UTC)

Pronóstico

El informe se hizo hace 2 horas y 2 minutos, a las 22:53 UTC
Pronóstico válido del 19 a las 00 UTC al 20 a las 06 UTC
Viento 10 kt del oeste
Visibilidad 10 km o más
Nubes dispersas a una altura de 4000 ft
Probabilidad 40%
del 19 a las 00 UTC al 19 a las 06 UTC
Viento 5 kt del sur-suroeste
Evolucionando progresivamente
del 19 a las 15 UTC al 19 a las 17 UTC
Viento 5 kt del sur

TAF: OMDB 182253Z 1900/2006 27010KT 9999 SCT040 PROB40 1900/1906 21005KT BECMG 1915/1917 18005KT

Observaciones y pronósticos meteorológicos de más de 4000 aeropuertos (mensajes METAR y TAF).

Los puntos amarillos y rojos representan las estaciones disponibles.

Ponga el ratón en el punto deseado para ver el nombre de la estación.

Haga clic para ver las observaciones y los pronósticos meteorológicos.

Para cambiar el mapa : haga clic en los botones verdes con una cruz de color negro para hacer un zoom, en el botón verde con un guión para alejar o en las flechas verdes para mapas adyacentes.


METAR-TAF: